sensor_id;sensor_type;location;lat;lon;timestamp;P1;durP1;ratioP1;P2;durP2;ratioP2
6564;SDS011;3316;44.118;27.258;2023-02-12T00:01:23;38.30;;;19.97;;
6564;SDS011;3316;44.118;27.258;2023-02-12T00:03:49;36.47;;;17.10;;
6564;SDS011;3316;44.118;27.258;2023-02-12T00:06:15;33.13;;;17.57;;
6564;SDS011;3316;44.118;27.258;2023-02-12T00:08:40;35.73;;;17.90;;
6564;SDS011;3316;44.118;27.258;2023-02-12T00:11:07;33.27;;;18.27;;
6564;SDS011;3316;44.118;27.258;2023-02-12T00:13:34;36.90;;;19.97;;
6564;SDS011;3316;44.118;27.258;2023-02-12T00:16:03;34.83;;;19.13;;
6564;SDS011;3316;44.118;27.258;2023-02-12T00:18:29;39.50;;;20.40;;
6564;SDS011;3316;44.118;27.258;2023-02-12T00:20:57;36.67;;;19.77;;
6564;SDS011;3316;44.118;27.258;2023-02-12T00:23:24;35.57;;;18.20;;
6564;SDS011;3316;44.118;27.258;2023-02-12T00:25:49;35.87;;;17.90;;
6564;SDS011;3316;44.118;27.258;2023-02-12T00:28:15;36.07;;;18.63;;
6564;SDS011;3316;44.118;27.258;2023-02-12T00:30:40;37.60;;;18.60;;
6564;SDS011;3316;44.118;27.258;2023-02-12T00:33:06;35.63;;;17.33;;
6564;SDS011;3316;44.118;27.258;2023-02-12T00:35:31;35.83;;;18.53;;
6564;SDS011;3316;44.118;27.258;2023-02-12T00:37:57;31.03;;;16.80;;
6564;SDS011;3316;44.118;27.258;2023-02-12T00:40:22;34.27;;;16.73;;
6564;SDS011;3316;44.118;27.258;2023-02-12T00:42:48;32.60;;;16.13;;
6564;SDS011;3316;44.118;27.258;2023-02-12T00:45:13;41.00;;;20.67;;
6564;SDS011;3316;44.118;27.258;2023-02-12T00:47:39;42.50;;;20.60;;
6564;SDS011;3316;44.118;27.258;2023-02-12T00:50:04;38.33;;;18.07;;
6564;SDS011;3316;44.118;27.258;2023-02-12T00:52:30;41.23;;;18.43;;
6564;SDS011;3316;44.118;27.258;2023-02-12T00:54:56;31.20;;;17.20;;
6564;SDS011;3316;44.118;27.258;2023-02-12T00:57:21;36.40;;;18.27;;
6564;SDS011;3316;44.118;27.258;2023-02-12T00:59:47;38.93;;;19.00;;
6564;SDS011;3316;44.118;27.258;2023-02-12T01:02:12;32.43;;;17.03;;
6564;SDS011;3316;44.118;27.258;2023-02-12T01:04:37;36.23;;;18.70;;
6564;SDS011;3316;44.118;27.258;2023-02-12T01:07:03;37.17;;;18.83;;
6564;SDS011;3316;44.118;27.258;2023-02-12T01:09:28;42.70;;;20.50;;
6564;SDS011;3316;44.118;27.258;2023-02-12T01:11:54;59.27;;;23.50;;
6564;SDS011;3316;44.118;27.258;2023-02-12T01:14:19;63.63;;;25.97;;
6564;SDS011;3316;44.118;27.258;2023-02-12T01:16:45;41.73;;;21.80;;
6564;SDS011;3316;44.118;27.258;2023-02-12T01:19:11;40.17;;;19.13;;
6564;SDS011;3316;44.118;27.258;2023-02-12T01:21:37;41.57;;;20.47;;
6564;SDS011;3316;44.118;27.258;2023-02-12T01:24:02;40.17;;;20.03;;
6564;SDS011;3316;44.118;27.258;2023-02-12T01:26:29;38.43;;;18.03;;
6564;SDS011;3316;44.118;27.258;2023-02-12T01:28:56;39.13;;;20.43;;
6564;SDS011;3316;44.118;27.258;2023-02-12T01:31:24;38.13;;;18.83;;
6564;SDS011;3316;44.118;27.258;2023-02-12T01:33:52;37.10;;;18.33;;
6564;SDS011;3316;44.118;27.258;2023-02-12T01:36:19;41.83;;;20.77;;
6564;SDS011;3316;44.118;27.258;2023-02-12T01:38:45;41.80;;;19.83;;
6564;SDS011;3316;44.118;27.258;2023-02-12T01:41:12;42.53;;;21.90;;
6564;SDS011;3316;44.118;27.258;2023-02-12T01:43:40;38.27;;;21.10;;
6564;SDS011;3316;44.118;27.258;2023-02-12T01:46:06;37.83;;;20.90;;
6564;SDS011;3316;44.118;27.258;2023-02-12T01:48:44;42.93;;;23.07;;
6564;SDS011;3316;44.118;27.258;2023-02-12T01:51:14;41.67;;;21.60;;
6564;SDS011;3316;44.118;27.258;2023-02-12T01:53:46;46.03;;;22.37;;
6564;SDS011;3316;44.118;27.258;2023-02-12T01:56:15;37.90;;;18.53;;
6564;SDS011;3316;44.118;27.258;2023-02-12T01:58:42;43.57;;;22.07;;
6564;SDS011;3316;44.118;27.258;2023-02-12T02:01:11;43.00;;;20.53;;
6564;SDS011;3316;44.118;27.258;2023-02-12T02:03:41;45.03;;;23.43;;
6564;SDS011;3316;44.118;27.258;2023-02-12T02:06:12;40.93;;;22.43;;
6564;SDS011;3316;44.118;27.258;2023-02-12T02:08:41;44.93;;;23.40;;
6564;SDS011;3316;44.118;27.258;2023-02-12T02:11:07;46.27;;;22.50;;
6564;SDS011;3316;44.118;27.258;2023-02-12T02:13:52;39.73;;;20.77;;
6564;SDS011;3316;44.118;27.258;2023-02-12T02:16:37;47.17;;;21.50;;
6564;SDS011;3316;44.118;27.258;2023-02-12T02:19:20;45.23;;;21.07;;
6564;SDS011;3316;44.118;27.258;2023-02-12T02:24:35;44.37;;;23.53;;
6564;SDS011;3316;44.118;27.258;2023-02-12T02:27:26;40.23;;;21.37;;
6564;SDS011;3316;44.118;27.258;2023-02-12T02:30:04;46.93;;;23.97;;
6564;SDS011;3316;44.118;27.258;2023-02-12T02:32:31;47.87;;;22.87;;
6564;SDS011;3316;44.118;27.258;2023-02-12T02:35:10;47.27;;;24.47;;
6564;SDS011;3316;44.118;27.258;2023-02-12T02:37:55;45.70;;;23.60;;
6564;SDS011;3316;44.118;27.258;2023-02-12T02:40:48;47.60;;;23.63;;
6564;SDS011;3316;44.118;27.258;2023-02-12T02:43:25;46.57;;;23.33;;
6564;SDS011;3316;44.118;27.258;2023-02-12T02:45:55;46.90;;;23.87;;
6564;SDS011;3316;44.118;27.258;2023-02-12T02:48:34;45.07;;;23.03;;
6564;SDS011;3316;44.118;27.258;2023-02-12T02:51:04;45.67;;;22.27;;
6564;SDS011;3316;44.118;27.258;2023-02-12T02:53:38;49.67;;;24.67;;
6564;SDS011;3316;44.118;27.258;2023-02-12T02:56:11;48.97;;;25.50;;
6564;SDS011;3316;44.118;27.258;2023-02-12T02:59:27;46.80;;;24.30;;
6564;SDS011;3316;44.118;27.258;2023-02-12T03:01:35;48.37;;;23.60;;
6564;SDS011;3316;44.118;27.258;2023-02-12T03:04:06;51.37;;;25.53;;
6564;SDS011;3316;44.118;27.258;2023-02-12T03:06:45;47.10;;;24.60;;
6564;SDS011;3316;44.118;27.258;2023-02-12T03:09:20;46.17;;;24.10;;
6564;SDS011;3316;44.118;27.258;2023-02-12T03:11:51;42.83;;;23.43;;
6564;SDS011;3316;44.118;27.258;2023-02-12T03:14:26;42.97;;;23.40;;
6564;SDS011;3316;44.118;27.258;2023-02-12T03:20:04;45.93;;;24.87;;
6564;SDS011;3316;44.118;27.258;2023-02-12T03:22:43;44.73;;;22.40;;
6564;SDS011;3316;44.118;27.258;2023-02-12T03:25:17;42.73;;;22.17;;
6564;SDS011;3316;44.118;27.258;2023-02-12T03:27:51;44.37;;;23.67;;
6564;SDS011;3316;44.118;27.258;2023-02-12T03:30:25;43.60;;;22.30;;
6564;SDS011;3316;44.118;27.258;2023-02-12T03:33:15;48.33;;;23.13;;
6564;SDS011;3316;44.118;27.258;2023-02-12T03:36:07;41.30;;;22.90;;
6564;SDS011;3316;44.118;27.258;2023-02-12T03:38:58;45.13;;;22.63;;
6564;SDS011;3316;44.118;27.258;2023-02-12T03:41:45;44.50;;;22.57;;
6564;SDS011;3316;44.118;27.258;2023-02-12T03:44:31;47.53;;;23.90;;
6564;SDS011;3316;44.118;27.258;2023-02-12T03:47:18;44.47;;;23.57;;
6564;SDS011;3316;44.118;27.258;2023-02-12T03:49:52;47.73;;;24.97;;
6564;SDS011;3316;44.118;27.258;2023-02-12T03:52:30;52.90;;;27.60;;
6564;SDS011;3316;44.118;27.258;2023-02-12T03:54:56;53.87;;;24.40;;
6564;SDS011;3316;44.118;27.258;2023-02-12T03:57:23;49.00;;;23.77;;
6564;SDS011;3316;44.118;27.258;2023-02-12T03:59:55;43.23;;;23.60;;
6564;SDS011;3316;44.118;27.258;2023-02-12T04:02:22;46.93;;;25.13;;
6564;SDS011;3316;44.118;27.258;2023-02-12T04:04:47;52.13;;;26.23;;
6564;SDS011;3316;44.118;27.258;2023-02-12T04:07:13;47.63;;;26.00;;
6564;SDS011;3316;44.118;27.258;2023-02-12T04:09:40;46.23;;;24.80;;
6564;SDS011;3316;44.118;27.258;2023-02-12T04:14:45;51.07;;;25.60;;
6564;SDS011;3316;44.118;27.258;2023-02-12T04:23:29;55.80;;;25.60;;
6564;SDS011;3316;44.118;27.258;2023-02-12T04:31:46;43.83;;;25.93;;
6564;SDS011;3316;44.118;27.258;2023-02-12T04:37:18;45.73;;;23.70;;
6564;SDS011;3316;44.118;27.258;2023-02-12T04:39:48;41.83;;;22.33;;
6564;SDS011;3316;44.118;27.258;2023-02-12T04:42:14;48.83;;;23.77;;
6564;SDS011;3316;44.118;27.258;2023-02-12T04:44:41;55.57;;;26.37;;
6564;SDS011;3316;44.118;27.258;2023-02-12T04:47:11;45.43;;;25.97;;
6564;SDS011;3316;44.118;27.258;2023-02-12T04:49:37;46.73;;;24.33;;
6564;SDS011;3316;44.118;27.258;2023-02-12T04:52:03;47.77;;;26.83;;
6564;SDS011;3316;44.118;27.258;2023-02-12T04:54:28;48.73;;;25.30;;
6564;SDS011;3316;44.118;27.258;2023-02-12T04:56:54;54.00;;;27.07;;
6564;SDS011;3316;44.118;27.258;2023-02-12T04:59:19;54.07;;;26.40;;
6564;SDS011;3316;44.118;27.258;2023-02-12T05:01:45;56.57;;;26.33;;
6564;SDS011;3316;44.118;27.258;2023-02-12T05:04:12;52.30;;;26.43;;
6564;SDS011;3316;44.118;27.258;2023-02-12T05:06:39;49.97;;;26.33;;
6564;SDS011;3316;44.118;27.258;2023-02-12T05:09:05;46.43;;;23.33;;
6564;SDS011;3316;44.118;27.258;2023-02-12T05:11:32;49.13;;;25.73;;
6564;SDS011;3316;44.118;27.258;2023-02-12T05:13:58;56.40;;;28.80;;
6564;SDS011;3316;44.118;27.258;2023-02-12T05:16:23;54.37;;;26.43;;
6564;SDS011;3316;44.118;27.258;2023-02-12T05:18:49;49.43;;;25.93;;
6564;SDS011;3316;44.118;27.258;2023-02-12T05:21:15;53.07;;;26.23;;
6564;SDS011;3316;44.118;27.258;2023-02-12T05:23:41;49.77;;;25.77;;
6564;SDS011;3316;44.118;27.258;2023-02-12T05:26:08;49.17;;;25.27;;
6564;SDS011;3316;44.118;27.258;2023-02-12T05:28:36;52.87;;;27.80;;
6564;SDS011;3316;44.118;27.258;2023-02-12T05:31:03;56.90;;;28.27;;
6564;SDS011;3316;44.118;27.258;2023-02-12T05:33:30;50.90;;;27.23;;
6564;SDS011;3316;44.118;27.258;2023-02-12T05:36:01;49.90;;;27.27;;
6564;SDS011;3316;44.118;27.258;2023-02-12T05:38:35;56.97;;;29.43;;
6564;SDS011;3316;44.118;27.258;2023-02-12T05:41:01;57.50;;;30.17;;
6564;SDS011;3316;44.118;27.258;2023-02-12T05:43:29;60.63;;;28.27;;
6564;SDS011;3316;44.118;27.258;2023-02-12T05:45:57;56.00;;;28.37;;
6564;SDS011;3316;44.118;27.258;2023-02-12T05:48:26;61.33;;;31.30;;
6564;SDS011;3316;44.118;27.258;2023-02-12T05:50:51;59.47;;;28.13;;
6564;SDS011;3316;44.118;27.258;2023-02-12T05:53:17;54.87;;;29.27;;
6564;SDS011;3316;44.118;27.258;2023-02-12T05:55:42;55.20;;;28.77;;
6564;SDS011;3316;44.118;27.258;2023-02-12T05:58:08;54.80;;;27.87;;
6564;SDS011;3316;44.118;27.258;2023-02-12T06:00:33;51.27;;;26.63;;
6564;SDS011;3316;44.118;27.258;2023-02-12T06:02:59;42.70;;;23.10;;
6564;SDS011;3316;44.118;27.258;2023-02-12T06:05:24;45.90;;;24.13;;
6564;SDS011;3316;44.118;27.258;2023-02-12T06:07:50;55.83;;;28.33;;
6564;SDS011;3316;44.118;27.258;2023-02-12T06:10:15;58.00;;;29.03;;
6564;SDS011;3316;44.118;27.258;2023-02-12T06:12:41;60.20;;;28.90;;
6564;SDS011;3316;44.118;27.258;2023-02-12T06:15:06;57.97;;;30.40;;
6564;SDS011;3316;44.118;27.258;2023-02-12T06:17:33;58.40;;;29.87;;
6564;SDS011;3316;44.118;27.258;2023-02-12T06:19:58;54.83;;;29.17;;
6564;SDS011;3316;44.118;27.258;2023-02-12T06:22:24;51.80;;;27.10;;
6564;SDS011;3316;44.118;27.258;2023-02-12T06:24:49;56.40;;;28.40;;
6564;SDS011;3316;44.118;27.258;2023-02-12T06:27:15;68.33;;;30.63;;
6564;SDS011;3316;44.118;27.258;2023-02-12T06:29:40;58.57;;;29.03;;
6564;SDS011;3316;44.118;27.258;2023-02-12T06:32:07;65.93;;;32.70;;
6564;SDS011;3316;44.118;27.258;2023-02-12T06:34:32;53.17;;;29.47;;
6564;SDS011;3316;44.118;27.258;2023-02-12T06:36:58;59.20;;;29.23;;
6564;SDS011;3316;44.118;27.258;2023-02-12T06:39:23;59.40;;;30.70;;
6564;SDS011;3316;44.118;27.258;2023-02-12T06:41:49;59.07;;;30.97;;
6564;SDS011;3316;44.118;27.258;2023-02-12T06:44:14;70.03;;;35.87;;
6564;SDS011;3316;44.118;27.258;2023-02-12T06:46:40;55.10;;;29.30;;
6564;SDS011;3316;44.118;27.258;2023-02-12T06:49:06;64.20;;;33.03;;
6564;SDS011;3316;44.118;27.258;2023-02-12T06:51:31;58.87;;;30.90;;
6564;SDS011;3316;44.118;27.258;2023-02-12T06:53:57;61.33;;;32.37;;
6564;SDS011;3316;44.118;27.258;2023-02-12T06:56:23;65.57;;;33.50;;
6564;SDS011;3316;44.118;27.258;2023-02-12T06:58:53;64.80;;;32.90;;
6564;SDS011;3316;44.118;27.258;2023-02-12T07:01:21;60.93;;;31.47;;
6564;SDS011;3316;44.118;27.258;2023-02-12T07:03:50;68.77;;;34.40;;
6564;SDS011;3316;44.118;27.258;2023-02-12T07:06:18;54.20;;;29.70;;
6564;SDS011;3316;44.118;27.258;2023-02-12T07:08:44;55.53;;;30.80;;
6564;SDS011;3316;44.118;27.258;2023-02-12T07:11:10;62.47;;;31.60;;
6564;SDS011;3316;44.118;27.258;2023-02-12T07:13:35;64.57;;;29.60;;
6564;SDS011;3316;44.118;27.258;2023-02-12T07:16:02;59.60;;;30.00;;
6564;SDS011;3316;44.118;27.258;2023-02-12T07:18:32;63.53;;;33.00;;
6564;SDS011;3316;44.118;27.258;2023-02-12T07:20:58;58.77;;;32.03;;
6564;SDS011;3316;44.118;27.258;2023-02-12T07:23:23;63.60;;;31.73;;
6564;SDS011;3316;44.118;27.258;2023-02-12T07:25:56;64.43;;;29.83;;
6564;SDS011;3316;44.118;27.258;2023-02-12T07:28:22;57.23;;;29.27;;
6564;SDS011;3316;44.118;27.258;2023-02-12T07:30:48;59.43;;;29.10;;
6564;SDS011;3316;44.118;27.258;2023-02-12T07:33:13;70.30;;;34.63;;
6564;SDS011;3316;44.118;27.258;2023-02-12T07:35:39;67.90;;;31.07;;
6564;SDS011;3316;44.118;27.258;2023-02-12T07:38:04;69.27;;;33.70;;
6564;SDS011;3316;44.118;27.258;2023-02-12T07:40:29;77.60;;;36.90;;
6564;SDS011;3316;44.118;27.258;2023-02-12T07:42:55;85.87;;;37.10;;
6564;SDS011;3316;44.118;27.258;2023-02-12T07:45:20;77.30;;;37.37;;
6564;SDS011;3316;44.118;27.258;2023-02-12T07:47:46;91.10;;;41.03;;
6564;SDS011;3316;44.118;27.258;2023-02-12T07:50:11;77.77;;;38.10;;
6564;SDS011;3316;44.118;27.258;2023-02-12T07:52:37;75.30;;;35.03;;
6564;SDS011;3316;44.118;27.258;2023-02-12T07:55:03;62.67;;;33.40;;
6564;SDS011;3316;44.118;27.258;2023-02-12T07:57:28;71.67;;;35.63;;
6564;SDS011;3316;44.118;27.258;2023-02-12T07:59:54;66.43;;;36.10;;
6564;SDS011;3316;44.118;27.258;2023-02-12T08:02:19;54.57;;;30.57;;
6564;SDS011;3316;44.118;27.258;2023-02-12T08:04:45;63.40;;;29.67;;
6564;SDS011;3316;44.118;27.258;2023-02-12T08:07:10;65.80;;;32.90;;
6564;SDS011;3316;44.118;27.258;2023-02-12T08:09:35;91.27;;;39.40;;
6564;SDS011;3316;44.118;27.258;2023-02-12T08:12:01;85.67;;;42.47;;
6564;SDS011;3316;44.118;27.258;2023-02-12T08:14:27;67.23;;;36.30;;
6564;SDS011;3316;44.118;27.258;2023-02-12T08:16:53;89.33;;;41.73;;
6564;SDS011;3316;44.118;27.258;2023-02-12T08:19:19;69.07;;;33.03;;
6564;SDS011;3316;44.118;27.258;2023-02-12T08:21:45;68.17;;;32.30;;
6564;SDS011;3316;44.118;27.258;2023-02-12T08:24:13;69.37;;;34.10;;
6564;SDS011;3316;44.118;27.258;2023-02-12T08:26:39;58.37;;;32.77;;
6564;SDS011;3316;44.118;27.258;2023-02-12T08:29:08;69.60;;;33.10;;
6564;SDS011;3316;44.118;27.258;2023-02-12T08:31:40;67.30;;;35.20;;
6564;SDS011;3316;44.118;27.258;2023-02-12T08:34:09;69.17;;;34.40;;
6564;SDS011;3316;44.118;27.258;2023-02-12T08:36:41;75.30;;;35.67;;
6564;SDS011;3316;44.118;27.258;2023-02-12T08:39:08;64.83;;;31.53;;
6564;SDS011;3316;44.118;27.258;2023-02-12T08:41:34;56.30;;;29.83;;
6564;SDS011;3316;44.118;27.258;2023-02-12T08:44:01;67.47;;;33.60;;
6564;SDS011;3316;44.118;27.258;2023-02-12T08:46:32;64.63;;;33.57;;
6564;SDS011;3316;44.118;27.258;2023-02-12T08:49:00;57.27;;;29.80;;
6564;SDS011;3316;44.118;27.258;2023-02-12T08:51:37;62.93;;;28.87;;
6564;SDS011;3316;44.118;27.258;2023-02-12T08:54:05;65.53;;;32.83;;
6564;SDS011;3316;44.118;27.258;2023-02-12T08:56:32;60.13;;;32.00;;
6564;SDS011;3316;44.118;27.258;2023-02-12T08:58:59;56.53;;;30.83;;
6564;SDS011;3316;44.118;27.258;2023-02-12T09:01:27;59.50;;;31.60;;
6564;SDS011;3316;44.118;27.258;2023-02-12T09:03:54;58.17;;;30.67;;
6564;SDS011;3316;44.118;27.258;2023-02-12T09:06:20;67.27;;;32.73;;
6564;SDS011;3316;44.118;27.258;2023-02-12T09:08:47;62.03;;;32.00;;
6564;SDS011;3316;44.118;27.258;2023-02-12T09:11:14;60.53;;;31.77;;
6564;SDS011;3316;44.118;27.258;2023-02-12T09:13:57;70.70;;;33.40;;
6564;SDS011;3316;44.118;27.258;2023-02-12T09:16:26;56.77;;;28.93;;
6564;SDS011;3316;44.118;27.258;2023-02-12T09:18:53;59.70;;;32.60;;
6564;SDS011;3316;44.118;27.258;2023-02-12T09:21:19;75.43;;;34.80;;
6564;SDS011;3316;44.118;27.258;2023-02-12T09:23:45;57.73;;;31.30;;
6564;SDS011;3316;44.118;27.258;2023-02-12T09:26:12;57.10;;;30.47;;
6564;SDS011;3316;44.118;27.258;2023-02-12T09:28:39;63.30;;;33.20;;
6564;SDS011;3316;44.118;27.258;2023-02-12T09:31:06;69.10;;;34.13;;
6564;SDS011;3316;44.118;27.258;2023-02-12T09:33:33;60.23;;;32.93;;
6564;SDS011;3316;44.118;27.258;2023-02-12T09:36:00;63.00;;;31.30;;
6564;SDS011;3316;44.118;27.258;2023-02-12T09:38:27;65.47;;;33.67;;
6564;SDS011;3316;44.118;27.258;2023-02-12T09:46:23;66.50;;;34.53;;
6564;SDS011;3316;44.118;27.258;2023-02-12T09:51:28;76.70;;;36.10;;
6564;SDS011;3316;44.118;27.258;2023-02-12T09:54:03;60.73;;;31.30;;
6564;SDS011;3316;44.118;27.258;2023-02-12T09:56:47;56.90;;;29.43;;
6564;SDS011;3316;44.118;27.258;2023-02-12T09:59:20;64.53;;;30.57;;
6564;SDS011;3316;44.118;27.258;2023-02-12T10:01:50;71.63;;;34.03;;
6564;SDS011;3316;44.118;27.258;2023-02-12T10:04:15;70.30;;;33.37;;
6564;SDS011;3316;44.118;27.258;2023-02-12T10:06:44;72.77;;;36.23;;
6564;SDS011;3316;44.118;27.258;2023-02-12T10:14:56;66.87;;;33.97;;
6564;SDS011;3316;44.118;27.258;2023-02-12T10:17:40;76.17;;;37.27;;
6564;SDS011;3316;44.118;27.258;2023-02-12T10:25:45;57.97;;;32.63;;
6564;SDS011;3316;44.118;27.258;2023-02-12T10:28:29;58.60;;;31.00;;
6564;SDS011;3316;44.118;27.258;2023-02-12T10:30:59;61.30;;;30.87;;
6564;SDS011;3316;44.118;27.258;2023-02-12T10:33:33;75.87;;;35.33;;
6564;SDS011;3316;44.118;27.258;2023-02-12T10:36:06;68.60;;;34.40;;
6564;SDS011;3316;44.118;27.258;2023-02-12T10:38:48;66.83;;;34.40;;
6564;SDS011;3316;44.118;27.258;2023-02-12T10:41:19;62.67;;;33.67;;
6564;SDS011;3316;44.118;27.258;2023-02-12T10:43:47;62.30;;;32.07;;
6564;SDS011;3316;44.118;27.258;2023-02-12T10:46:15;65.97;;;32.83;;
6564;SDS011;3316;44.118;27.258;2023-02-12T10:48:43;58.23;;;32.53;;
6564;SDS011;3316;44.118;27.258;2023-02-12T10:54:30;64.00;;;32.90;;
6564;SDS011;3316;44.118;27.258;2023-02-12T10:57:19;60.53;;;32.10;;
6564;SDS011;3316;44.118;27.258;2023-02-12T10:59:48;60.30;;;32.40;;
6564;SDS011;3316;44.118;27.258;2023-02-12T11:02:27;66.07;;;32.93;;
6564;SDS011;3316;44.118;27.258;2023-02-12T11:04:55;61.27;;;31.43;;
6564;SDS011;3316;44.118;27.258;2023-02-12T11:07:23;61.63;;;31.30;;
6564;SDS011;3316;44.118;27.258;2023-02-12T11:09:50;55.47;;;28.13;;
6564;SDS011;3316;44.118;27.258;2023-02-12T11:12:33;58.30;;;28.63;;
6564;SDS011;3316;44.118;27.258;2023-02-12T11:15:15;56.07;;;32.10;;
6564;SDS011;3316;44.118;27.258;2023-02-12T11:17:44;52.90;;;29.87;;
6564;SDS011;3316;44.118;27.258;2023-02-12T11:23:04;59.33;;;31.17;;
6564;SDS011;3316;44.118;27.258;2023-02-12T11:25:32;57.73;;;28.67;;
6564;SDS011;3316;44.118;27.258;2023-02-12T11:30:58;67.10;;;33.33;;
6564;SDS011;3316;44.118;27.258;2023-02-12T11:33:27;64.40;;;31.70;;
6564;SDS011;3316;44.118;27.258;2023-02-12T11:36:04;66.27;;;33.23;;
6564;SDS011;3316;44.118;27.258;2023-02-12T11:38:46;68.27;;;34.93;;
6564;SDS011;3316;44.118;27.258;2023-02-12T11:41:26;59.63;;;31.70;;
6564;SDS011;3316;44.118;27.258;2023-02-12T11:44:08;75.93;;;35.93;;
6564;SDS011;3316;44.118;27.258;2023-02-12T11:46:36;81.23;;;40.00;;
6564;SDS011;3316;44.118;27.258;2023-02-12T11:49:02;83.80;;;42.28;;
6564;SDS011;3316;44.118;27.258;2023-02-12T11:51:30;82.33;;;40.37;;
6564;SDS011;3316;44.118;27.258;2023-02-12T11:53:57;77.47;;;36.80;;
6564;SDS011;3316;44.118;27.258;2023-02-12T11:56:48;73.97;;;35.03;;
6564;SDS011;3316;44.118;27.258;2023-02-12T12:01:53;78.63;;;39.00;;
6564;SDS011;3316;44.118;27.258;2023-02-12T12:04:21;84.10;;;42.70;;
6564;SDS011;3316;44.118;27.258;2023-02-12T12:07:00;106.00;;;47.73;;
6564;SDS011;3316;44.118;27.258;2023-02-12T12:12:18;87.50;;;42.97;;
6564;SDS011;3316;44.118;27.258;2023-02-12T12:14:56;70.33;;;38.30;;
6564;SDS011;3316;44.118;27.258;2023-02-12T12:18:00;66.80;;;35.00;;
6564;SDS011;3316;44.118;27.258;2023-02-12T12:20:48;63.73;;;31.73;;
6564;SDS011;3316;44.118;27.258;2023-02-12T12:25:49;58.67;;;28.90;;
6564;SDS011;3316;44.118;27.258;2023-02-12T12:36:29;53.77;;;28.47;;
6564;SDS011;3316;44.118;27.258;2023-02-12T12:49:57;52.50;;;26.80;;
6564;SDS011;3316;44.118;27.258;2023-02-12T12:55:53;49.87;;;25.17;;
6564;SDS011;3316;44.118;27.258;2023-02-12T13:12:23;45.47;;;25.10;;
6564;SDS011;3316;44.118;27.258;2023-02-12T13:17:50;43.33;;;24.80;;
6564;SDS011;3316;44.118;27.258;2023-02-12T13:28:36;46.30;;;25.17;;
6564;SDS011;3316;44.118;27.258;2023-02-12T13:31:08;43.13;;;24.63;;
6564;SDS011;3316;44.118;27.258;2023-02-12T13:36:09;49.50;;;26.20;;
6564;SDS011;3316;44.118;27.258;2023-02-12T13:38:40;44.43;;;25.83;;
6564;SDS011;3316;44.118;27.258;2023-02-12T13:41:10;47.13;;;26.80;;
6564;SDS011;3316;44.118;27.258;2023-02-12T13:46:23;47.10;;;26.07;;
6564;SDS011;3316;44.118;27.258;2023-02-12T14:01:54;41.53;;;21.67;;
6564;SDS011;3316;44.118;27.258;2023-02-12T14:06:53;51.03;;;26.87;;
6564;SDS011;3316;44.118;27.258;2023-02-12T14:12:03;54.03;;;29.90;;
6564;SDS011;3316;44.118;27.258;2023-02-12T14:18:07;50.73;;;28.70;;
6564;SDS011;3316;44.118;27.258;2023-02-12T14:20:20;50.13;;;27.53;;
6564;SDS011;3316;44.118;27.258;2023-02-12T14:25:56;34.47;;;18.93;;
6564;SDS011;3316;44.118;27.258;2023-02-12T14:28:42;30.80;;;16.97;;
6564;SDS011;3316;44.118;27.258;2023-02-12T14:33:43;30.80;;;16.37;;
6564;SDS011;3316;44.118;27.258;2023-02-12T14:36:35;25.43;;;15.00;;
6564;SDS011;3316;44.118;27.258;2023-02-12T14:41:48;24.70;;;15.17;;
6564;SDS011;3316;44.118;27.258;2023-02-12T14:46:43;27.80;;;14.00;;
6564;SDS011;3316;44.118;27.258;2023-02-12T14:49:22;22.53;;;13.70;;
6564;SDS011;3316;44.118;27.258;2023-02-12T15:05:49;27.57;;;16.30;;
6564;SDS011;3316;44.118;27.258;2023-02-12T15:08:35;23.93;;;14.20;;
6564;SDS011;3316;44.118;27.258;2023-02-12T15:11:11;22.40;;;14.13;;
6564;SDS011;3316;44.118;27.258;2023-02-12T15:13:48;34.47;;;21.10;;
6564;SDS011;3316;44.118;27.258;2023-02-12T15:22:19;54.80;;;29.00;;
6564;SDS011;3316;44.118;27.258;2023-02-12T15:24:48;59.40;;;29.30;;
6564;SDS011;3316;44.118;27.258;2023-02-12T15:27:13;51.27;;;29.33;;
6564;SDS011;3316;44.118;27.258;2023-02-12T15:29:41;57.83;;;30.27;;
6564;SDS011;3316;44.118;27.258;2023-02-12T15:32:13;56.27;;;29.17;;
6564;SDS011;3316;44.118;27.258;2023-02-12T15:34:44;53.27;;;27.83;;
6564;SDS011;3316;44.118;27.258;2023-02-12T15:37:27;51.03;;;28.17;;
6564;SDS011;3316;44.118;27.258;2023-02-12T15:39:55;58.77;;;29.43;;
6564;SDS011;3316;44.118;27.258;2023-02-12T15:42:24;53.53;;;26.27;;
6564;SDS011;3316;44.118;27.258;2023-02-12T15:44:51;46.20;;;24.67;;
6564;SDS011;3316;44.118;27.258;2023-02-12T15:47:16;50.23;;;27.00;;
6564;SDS011;3316;44.118;27.258;2023-02-12T15:49:48;44.23;;;24.50;;
6564;SDS011;3316;44.118;27.258;2023-02-12T15:52:22;48.00;;;25.20;;
6564;SDS011;3316;44.118;27.258;2023-02-12T15:54:57;44.07;;;25.03;;
6564;SDS011;3316;44.118;27.258;2023-02-12T15:57:23;44.87;;;23.40;;
6564;SDS011;3316;44.118;27.258;2023-02-12T15:59:53;51.53;;;26.00;;
6564;SDS011;3316;44.118;27.258;2023-02-12T16:02:24;53.87;;;27.10;;
6564;SDS011;3316;44.118;27.258;2023-02-12T16:04:52;62.50;;;29.70;;
6564;SDS011;3316;44.118;27.258;2023-02-12T16:07:19;101.00;;;43.00;;
6564;SDS011;3316;44.118;27.258;2023-02-12T16:09:47;125.63;;;50.93;;
6564;SDS011;3316;44.118;27.258;2023-02-12T16:12:16;81.60;;;35.73;;
6564;SDS011;3316;44.118;27.258;2023-02-12T16:14:50;78.07;;;36.23;;
6564;SDS011;3316;44.118;27.258;2023-02-12T16:20:31;70.10;;;33.27;;
6564;SDS011;3316;44.118;27.258;2023-02-12T16:22:44;46.53;;;24.70;;
6564;SDS011;3316;44.118;27.258;2023-02-12T16:28:02;75.27;;;32.67;;
6564;SDS011;3316;44.118;27.258;2023-02-12T16:30:38;54.73;;;27.53;;
6564;SDS011;3316;44.118;27.258;2023-02-12T16:41:25;53.40;;;23.33;;
6564;SDS011;3316;44.118;27.258;2023-02-12T16:46:23;36.23;;;18.40;;
6564;SDS011;3316;44.118;27.258;2023-02-12T16:48:50;30.37;;;15.70;;
6564;SDS011;3316;44.118;27.258;2023-02-12T16:51:24;28.53;;;16.87;;
6564;SDS011;3316;44.118;27.258;2023-02-12T16:53:54;33.53;;;17.03;;
6564;SDS011;3316;44.118;27.258;2023-02-12T16:56:22;33.57;;;16.77;;
6564;SDS011;3316;44.118;27.258;2023-02-12T16:58:52;43.53;;;18.33;;
6564;SDS011;3316;44.118;27.258;2023-02-12T17:03:51;44.50;;;21.97;;
6564;SDS011;3316;44.118;27.258;2023-02-12T17:06:19;46.77;;;23.17;;
6564;SDS011;3316;44.118;27.258;2023-02-12T17:08:46;45.63;;;23.37;;
6564;SDS011;3316;44.118;27.258;2023-02-12T17:11:12;38.63;;;20.83;;
6564;SDS011;3316;44.118;27.258;2023-02-12T17:13:40;35.43;;;20.93;;
6564;SDS011;3316;44.118;27.258;2023-02-12T17:16:05;41.43;;;20.73;;
6564;SDS011;3316;44.118;27.258;2023-02-12T17:18:31;34.00;;;19.50;;
6564;SDS011;3316;44.118;27.258;2023-02-12T17:23:52;54.80;;;27.93;;
6564;SDS011;3316;44.118;27.258;2023-02-12T17:26:18;53.60;;;26.93;;
6564;SDS011;3316;44.118;27.258;2023-02-12T17:28:45;66.43;;;32.53;;
6564;SDS011;3316;44.118;27.258;2023-02-12T17:31:10;78.43;;;36.60;;
6564;SDS011;3316;44.118;27.258;2023-02-12T17:33:36;52.70;;;25.57;;
6564;SDS011;3316;44.118;27.258;2023-02-12T17:36:02;47.90;;;24.73;;
6564;SDS011;3316;44.118;27.258;2023-02-12T17:38:28;66.57;;;30.10;;
6564;SDS011;3316;44.118;27.258;2023-02-12T17:40:53;45.10;;;24.07;;
6564;SDS011;3316;44.118;27.258;2023-02-12T17:43:19;68.17;;;33.93;;
6564;SDS011;3316;44.118;27.258;2023-02-12T17:45:44;65.57;;;35.10;;
6564;SDS011;3316;44.118;27.258;2023-02-12T17:48:10;73.37;;;40.73;;
6564;SDS011;3316;44.118;27.258;2023-02-12T17:50:38;78.13;;;39.93;;
6564;SDS011;3316;44.118;27.258;2023-02-12T17:53:04;85.50;;;39.20;;
6564;SDS011;3316;44.118;27.258;2023-02-12T17:55:30;88.63;;;42.27;;